Tiempo atmosférico en la estación meteorológica de Tarifa, Cádiz (32 m.)



Fecha
DESCASC
Temp. máxima en grados centígrados (hora)
DESCASC
Temp. mínima en grados centígrados (hora)
DESCASC
Temp. media en grados centígrados
DESCASC
Racha de viento máxima en m/sg (hora)
DESCASC
Velocidad máxima media en intervalos de 10 minutos(hora)
DESCASC
Precipitaciones diarias en mm
DESCASC
Precipitaciones de 00:00 a 06:00 en mm
DESCASC
Precipitaciones de 06:00 a 12:00 en mm
DESCASC
Precipitaciones de 12:00 a 18:00 en mm
DESCASC
Precipitaciones de 18:00 a 24:00 en mm
DESCASC
13-10-2019 22.4 (15:50) 18.1 (06:20) 20.3 18.33 (18:10) 12.5 (15:40) 0 0 0 0 0
12-10-2019 23.9 (15:30) 19.8 (23:59) 21.8 15.56 (03:30) 10 (02:10) 0 0 0 0 0
11-10-2019 23.7 (12:00) 20.3 (21:10) 22 18.61 (02:00) 11.67 (02:20) 0 0 0 0 0
10-10-2019 24 (15:20) 18.9 (00:00) 21.4 25 (15:50) 13.33 (12:20) 0 0 0 0 0
09-10-2019 23.2 (15:20) 19.1 (00:00) 21.2 16.94 (03:30) 11.39 (03:30) 0 0 0 0 0
08-10-2019 24.5 (16:00) 16.3 (00:00) 20.4 19.17 (15:00) 12.5 (14:30) 0 0 0 0 0
07-10-2019 21.8 (17:50) 15.3 (00:00) 18.5 9.17 (13:20) 6.67 (14:50) 0 0 0 0 0
06-10-2019 22.3 (15:40) 16.5 (00:00) 19.4 10.28 (13:40) 6.67 (14:40) 0 0 0 0 0
05-10-2019 22.5 (16:10) 17.2 (00:00) 19.9 9.72 (18:50) 6.67 (17:10) 0 0 0 0 0
04-10-2019 22.6 (16:20) 16.4 (00:00) 19.5 8.61 (14:20) 5.56 (13:30) 0 0 0 0 0
03-10-2019 21.7 (15:40) 16.4 (00:00) 19.1 9.17 (18:20) 6.67 (16:00) 0 0 0 0 0
02-10-2019 21.7 (16:30) 16.6 (00:00) 19.2 11.94 (15:30) 7.22 (14:20) 0 0 0 0 0
01-10-2019 21.9 (13:40) 16.7 (00:00) 19.3 10.83 (16:30) 7.78 (16:40) 0 0 0 0 0
30-09-2019 27.2 (16:20) 14.8 (00:00) 21 5.83 (23:50) 2.78 (04:40) 0 0 0 0 0
29-09-2019 24.3 (15:40) 17.2 (00:00) 20.8 16.67 (04:10) 11.67 (04:10) 0 0 0 0 0
28-09-2019 26 (16:10) 15.8 (00:00) 20.9 15.56 (23:59) 10 (23:00) 0 0 0 0 0
27-09-2019 24.8 (17:40) 17.2 (00:00) 21 9.44 (12:20) 6.67 (13:00) 0 0 0 0 0
26-09-2019 24.2 (15:40) 16.3 (00:00) 20.3 12.5 (16:50) 8.89 (16:50) 0 0 0 0 0
25-09-2019 23.1 (13:50) 18.9 (00:00) 21 13.61 (12:00) 7.78 (17:20) 0 0 0 0 0
24-09-2019 25 (13:20) 15.7 (00:00) 20.3 8.89 (19:20) 5.83 (19:50) 0 0 0 0 0
23-09-2019 23.8 (17:00) 16.4 (00:00) 20.1 8.06 (12:50) 5.56 (12:20) 0 0 0 0 0
22-09-2019 21.8 (17:20) 18.8 (00:00) 20.3 10 (18:20) 6.67 (18:20) 0.3 0 0.1 0.2 0
21-09-2019 23.2 (16:20) 18.4 (00:00) 20.8 8.33 (19:30) 5.28 (19:40) 0 0 0 0 0
20-09-2019 24.8 (15:50) 19.2 (00:00) 22 9.44 (05:00) 6.11 (05:20) 0 0 0 0 0
19-09-2019 22.7 (15:30) 17.3 (00:00) 20 7.22 (14:40) 5.28 (15:50) 0 0 0 0 0
18-09-2019 23.2 (15:50) 18.8 (00:00) 21 8.61 (14:50) 5.83 (13:50) 0 0 0 0 0
17-09-2019 26.3 (16:30) 19.9 (00:00) 23.1 16.11 (04:20) 10.83 (04:20) 0 0 0 0 0
16-09-2019 24.3 (17:10) 14.9 (00:00) 19.6 11.39 (15:30) 8.61 (15:30) 0 0 0 0 0

Gráficas

Temp. máximas Temp. mínimas Temp. medias Precipitaciones Rachas de viento máximas Velocidades máximas media en intervalos de 10 minutos

Datos horarios

Fecha y hora oficial Temperatura (ºC) Velocidad del viento (km/h) Dirección del viento Racha (km/h) Dirección de racha Precipitación (mm) Presión (hPa) Tendencia (hPa) Humedad (%)
2019-10-15 23:00:00 15.8 11 Noroeste 17 Noroeste 0 1016.4 1 49
2019-10-15 22:00:00 16.1 9 Noroeste 17 Noroeste 0 1016 0.8 53
2019-10-15 21:00:00 17.2 10 Noroeste 29 Oeste 0 1015.8 0.5 70
2019-10-15 20:00:00 17.7 17 Oeste 29 Oeste 0 1015.4 -0.1 72
2019-10-15 19:00:00 18.6 17 Oeste 33 Oeste 0 1015.2 -0.4 69
2019-10-15 18:00:00 19 19 Oeste 33 Oeste 0 1015.3 -1 61
2019-10-15 17:00:00 19.2 23 Oeste 40 Sudoeste 0 1015.5 -1.4 62
2019-10-15 16:00:00 19.6 22 Oeste 35 Sudoeste 0 1015.6 -1.7 55
2019-10-15 15:00:00 20 21 Sudoeste 35 Oeste 0 1016.3 -1.2 56
2019-10-15 14:00:00 19.2 16 Sudoeste 29 Oeste 0 1016.9 -0.7 60
2019-10-15 13:00:00 19.1 15 Oeste 26 Noroeste 0 1017.3 0.6 48
2019-10-15 12:00:00 17.7 12 Oeste 19 Noroeste 0 1017.5 1.5 57
2019-10-15 11:00:00 16.6 9 Noroeste 18 Noroeste 0 1017.6 1.5 70
2019-10-15 10:00:00 15.6 11 Noroeste 21 Norte 0 1016.7 0.9 72
2019-10-15 09:00:00 14.4 15 Norte 23 Norte 0 1016 0.1 73
2019-10-15 08:00:00 14.4 14 Norte 21 Norte 0 1016.1 0.1 78
2019-10-15 07:00:00 14.3 14 Norte 21 Norte 0 1015.8 -0.1 80
2019-10-15 06:00:00 14.5 12 Norte 20 Norte 0 1015.9 -0.1 80
2019-10-15 05:00:00 15.1 13 Norte 24 Norte 0 1016 0 77
2019-10-15 04:00:00 15.8 9 Noroeste 19 Noroeste 0 1015.9 -0.1 80
2019-10-15 03:00:00 16.3 6 Noroeste 13 Norte 0 1016 0 84
2019-10-15 02:00:00 16.5 8 Noroeste 18 Noroeste 0 1016 0.3 87
2019-10-15 01:00:00 17.9 11 Noroeste 27 Oeste 0 1016 0.5 85
2019-10-15 00:00:00 18 14 Oeste 25 Sudoeste 0 1016 0.8 87
2019-10-14 23:00:00 19.1 18 Oeste 27 Oeste 0 1015.7 1 77
2019-10-14 22:00:00 18.7 12 Oeste 26 Oeste 0 1015.5 1.4 82
2019-10-14 21:00:00 18.6 14 Oeste 23 Oeste 0 1015.2 1.5 84
2019-10-14 20:00:00 18.8 13 Oeste 32 Oeste 0 1014.7 1.3 82
2019-10-14 19:00:00 19.6 21 Oeste 55 Noroeste 0 1014.1 0.8 77
2019-10-14 18:00:00 20.2 18 Oeste 32 Oeste 0 1013.7 0.4 77
2019-10-14 17:00:00 20.7 15 Oeste 34 Oeste 0 1013.4 -0.1 80
2019-10-14 16:00:00 20.4 23 Oeste 35 Oeste 0 1013.3 -0.1 83
2019-10-14 15:00:00 21.2 14 Oeste 30 Oeste 0 1013.3 0.1 80
2019-10-14 14:00:00 20.6 13 Oeste 30 Noroeste 0 1013.5 0.6 81
2019-10-14 13:00:00 20.1 15 Oeste 24 Noroeste 0 1013.4 1.2 84
2019-10-14 12:00:00 19.7 13 Oeste 32 Sudoeste 0 1013.2 2 90
2019-10-14 11:00:00 18.7 22 Sudoeste 34 Sudoeste 0 1012.9 2.1 96
2019-10-14 10:00:00 18.2 17 Sudoeste 37 Sudoeste 2.5 1012.2 1.5 97
2019-10-14 09:00:00 19.4 21 Sudoeste 33 Sudoeste 0 1011.2 0.4 90
2019-10-14 08:00:00 18.9 15 Sudoeste 24 Sudoeste 0 1010.8 0 92
2019-10-14 07:00:00 19.1 14 Sudoeste 35 Sudoeste 0 1010.7 0.4 92
2019-10-14 06:00:00 19.4 18 Sudoeste 36 Sudoeste 0 1010.8 0.8 92
2019-10-14 05:00:00 19.5 8 Sudoeste 26 Oeste 0 1010.8 1.3 93
2019-10-14 04:00:00 20 0 Calma 20 Este 0 1010.3 0.8 90
2019-10-14 03:00:00 19.8 18 Este 31 Este 0 1010 0.8 91
2019-10-14 02:00:00 20.1 20 Este 42 Este 0 1009.5 0.6 89
2019-10-14 01:00:00 20.3 27 Este 55 Este 0 1009.5 1.5 88
2019-10-14 00:00:00 20.4 33 Este 51 Nordeste 0 1009.2 1.2 86
2019-10-13 23:00:00 20.2 36 Este 59 Este 0 1008.9 1.3 88
2019-10-13 22:00:00 20 36 Este 57 Este 0 1008 0.4 88
2019-10-13 21:00:00 19.9 33 Este 57 Este 0 1008 0.3 88
2019-10-13 20:00:00 19.7 40 Este 64 Este 0 1007.6 -0.5 89
2019-10-13 19:00:00 20 41 Este 66 Este 0 1007.6 -0.1 91
2019-10-13 18:00:00 21.3 41 Este 63 Este 0 1007.7 -1.3 84
2019-10-13 17:00:00 21.4 42 Este 63 Este 0 1008.1 -2.1 84
2019-10-13 16:00:00 21.6 41 Este 62 Este 0 1007.7 -3.2 84
2019-10-13 15:00:00 21.5 40 Este 58 Este 0 1009 -2.2 83
2019-10-13 14:00:00 20.8 39 Este 55 Este 0 1010.2 -1 89
2019-10-13 13:00:00 20.9 36 Este 54 Este 0 1010.9 0.1 89
2019-10-13 12:00:00 20.7 33 Este 46 Este 0 1011.2 0.5 90
2019-10-13 11:00:00 19.7 25 Este 41 Este 0 1011.2 0.4 94
2019-10-13 10:00:00 18.9 22 Este 45 Nordeste 0 1010.8 0.5 98
2019-10-13 09:00:00 18.5 21 Este 30 Este 0 1010.7 0.2 99
2019-10-13 08:00:00 18.4 16 Este 28 Este 0 1010.8 0 99
2019-10-13 07:00:00 18.3 17 Este 29 Este 0 1010.3 -0.6 99
2019-10-13 06:00:00 18.3 18 Este 27 Este 0 1010.5 -0.9 99
2019-10-13 05:00:00 18.7 18 Este 27 Este 0 1010.8 -0.8 98
2019-10-13 04:00:00 19.2 19 Este 29 Este 0 1010.9 -0.9 96
2019-10-13 03:00:00 19.6 16 Este 24 Este 0 1011.4 -0.5 94
2019-10-13 02:00:00 20 12 Este 22 Este 0 1011.6 -0.3 92
2019-10-13 01:00:00 20 14 Este 22 Este 0 1011.8 0.5 91
2019-10-13 00:00:00 19.9 13 Nordeste 24 Este 0 1011.9 0.9 93
2019-10-12 23:00:00 20.4 18 Este 32 Este 0 1011.9 1.2 90
2019-10-12 22:00:00 20.5 21 Este 31 Este 0 1011.3 0.6 88
2019-10-12 21:00:00 20.8 21 Este 74 Este 0 1011 0.6 85
2019-10-12 20:00:00 21.2 21 Este 33 Este 0 1010.7 0 81
2019-10-12 19:00:00 22.1 21 Este 36 Este 0 1010.7 0.2 80
2019-10-12 18:00:00 23 24 Este 42 Este 0 1010.4 -0.5 75
2019-10-12 17:00:00 23.4 28 Este 41 Este 0 1010.7 -1.3 75
2019-10-12 16:00:00 23.5 27 Este 42 Nordeste 0 1010.5 -1.9 75
2019-10-12 15:00:00 23 29 Este 41 Este 0 1010.9 -1.4 81
2019-10-12 14:00:00 22.8 27 Este 41 Este 0 1012 -0.2 83
2019-10-12 13:00:00 22.6 26 Este 45 Este 0 1012.4 1.2 84
2019-10-12 12:00:00 22.3 28 Este 46 Este 0 1012.3 1.9 86
2019-10-12 11:00:00 21.6 25 Este 41 Este 0 1012.2 1.8 90
2019-10-12 10:00:00 21.3 24 Este 47 Este 0 1011.2 0.9 89
2019-10-12 09:00:00 20.7 23 Este 42 Este 0 1010.4 0 90
2019-10-12 08:00:00 20.7 22 Este 37 Este 0 1010.4 0.4 90
2019-10-12 07:00:00 20.8 24 Este 44 Este 0 1010.3 -0.3 89
2019-10-12 06:00:00 20.7 28 Este 54 Este 0 1010.4 -0.8 92
2019-10-12 05:00:00 20.5 30 Este 45 Este 0 1010 -1.4 92
2019-10-12 04:00:00 20.4 32 Este 56 Este 0 1010.6 -1.3 93
2019-10-12 03:00:00 20.5 31 Este 55 Este 0 1011.2 -1.3 93
2019-10-12 02:00:00 20.5 31 Este 56 Este 0 1011.4 -1.1 93
2019-10-12 01:00:00 20.5 33 Este 54 Este 0 1011.9 -0.2 94
2019-10-12 00:00:00 20.5 31 Este 49 Este 0 1012.5 0.8 93
2019-10-11 23:00:00 20.6 28 Este 44 Este 0 1012.5 0.9 92
2019-10-11 22:00:00 20.3 28 Este 48 Este 0 1012.1 0.3 93
2019-10-11 21:00:00 20.4 31 Este 59 Nordeste 0 1011.7 -0.5 92
2019-10-11 20:00:00 20.7 31 Este 52 Este 0 1011.6 -0.7 90
2019-10-11 19:00:00 21.2 33 Este 52 Este 0 1011.8 -1 87
2019-10-11 18:00:00 21.6 30 Este 55 Este 0 1012.2 -1.2 84
2019-10-11 17:00:00 22.1 33 Este 51 Este 0 1012.3 -1.6 82
2019-10-11 16:00:00 23.2 33 Este 51 Este 0 1012.8 -1.9 78
2019-10-11 15:00:00 23 31 Este 59 Este 0 1013.4 -0.9 79
2019-10-11 14:00:00 23 33 Este 55 Este 0 1013.9 -0.5 78
2019-10-11 13:00:00 22.2 34 Este 61 Este 0 1014.7 1.2 82
2019-10-11 12:00:00 23.5 34 Este 60 Este 0 1014.3 1.9 77
2019-10-11 11:00:00 22.6 38 Este 60 Este 0 1014.4 1.8 81
2019-10-11 10:00:00 21.2 37 Este 60 Este 0 1013.5 1.2 86
2019-10-11 09:00:00 21 39 Este 56 Este 0 1012.4 0.3 87
2019-10-11 08:00:00 20.8 37 Este 58 Este 0 1012.6 0.7 88
2019-10-11 07:00:00 20.7 36 Este 61 Este 0 1012.3 0 88
2019-10-11 06:00:00 20.9 37 Este 58 Este 0 1012.1 -0.5 88
2019-10-11 05:00:00 21 35 Este 60 Este 0 1011.9 -0.2 88
2019-10-11 04:00:00 21 37 Este 61 Nordeste 0 1012.3 -0.2 88
2019-10-11 03:00:00 21.2 39 Este 66 Nordeste 0 1012.6 0.3 86
2019-10-11 02:00:00 21.1 39 Este 67 Este 0 1012.1 -0.4 86
2019-10-11 01:00:00 21.2 39 Este 63 Este 0 1012.5 0.4 86
2019-10-11 00:00:00 21.1 42 Este 69 Este 0 1012.3 0.8 85
2019-10-10 23:00:00 21.1 40 Este 64 Este 0 1012.5 1.7 88
2019-10-10 22:00:00 21 43 Este 64 Este 0 1012.1 1.2 89
2019-10-10 21:00:00 21.1 44 Este 69 Este 0 1011.5 0.3 88
2019-10-10 20:00:00 21.3 46 Este 71 Este 0 1010.8 -0.8 87
2019-10-10 19:00:00 22 47 Este 68 Este 0 1010.9 -1 84
2019-10-10 18:00:00 22.6 44 Este 68 Este 0 1011.2 -1.1 81
2019-10-10 17:00:00 23.2 40 Este 66 Este 0 1011.6 -1.4 79
2019-10-10 16:00:00 22.9 44 Este 90 Nordeste 0 1011.9 -1.3 81
2019-10-10 15:00:00 23.5 41 Este 63 Este 0 1012.3 -0.5 78
2019-10-10 14:00:00 23.2 44 Este 67 Este 0 1013 0 79
2019-10-10 13:00:00 23.1 41 Este 70 Este 0 1013.2 1.1 77
2019-10-10 12:00:00 23 41 Este 71 Este 0 1012.8 1.1 79
2019-10-10 11:00:00 22.2 38 Este 66 Este 0 1013 1.9 82
2019-10-10 10:00:00 21 43 Este 65 Este 0 1012.1 1.3 88
2019-10-10 09:00:00 20 38 Este 58 Este 0 1011.7 1.4 94
2019-10-10 08:00:00 19.4 35 Este 57 Este 0 1011.1 1.1 96
2019-10-10 07:00:00 19.1 34 Este 56 Este 0 1010.8 0.3 97
2019-10-10 06:00:00 19.2 38 Este 61 Este 0 1010.3 -0.1 96
2019-10-10 05:00:00 19.1 35 Este 54 Este 0 1010 -0.4 96
2019-10-10 04:00:00 19.5 31 Este 52 Este 0 1010.5 -0.7 91
2019-10-10 03:00:00 19.7 32 Este 49 Este 0 1010.4 -0.7 89
2019-10-10 02:00:00 19.8 33 Este 48 Este 0 1010.4 -0.7 87
2019-10-10 01:00:00 19.6 23 Este 46 Este 0 1011.2 0.5 89
2019-10-10 00:00:00 20.2 26 Este 40 Este 0 1011.1 0.9 91
2019-10-09 23:00:00 20.2 22 Este 35 Este 0 1011.1 0.9 89
2019-10-09 22:00:00 19.8 26 Este 37 Este 0 1010.7 0.7 90
2019-10-09 21:00:00 20.1 19 Este 35 Nordeste 0 1010.2 0.4 88
2019-10-09 20:00:00 19.3 20 Este 42 Este 0 1010.2 0 94
2019-10-09 19:00:00 20.8 25 Este 46 Este 0 1010 -0.3 89
2019-10-09 18:00:00 22 26 Este 42 Este 0 1009.8 -0.4 83
2019-10-09 17:00:00 22.4 27 Este 45 Este 0 1010.2 -0.5 81
2019-10-09 16:00:00 22.8 29 Este 48 Este 0 1010.3 -1.1 78
2019-10-09 15:00:00 23 30 Este 52 Este 0 1010.2 -1.3 77
2019-10-09 14:00:00 22.8 36 Este 53 Este 0 1010.7 -1 78
2019-10-09 13:00:00 22.7 32 Este 54 Este 0 1011.4 0.5 79
2019-10-09 12:00:00 22.2 34 Este 53 Este 0 1011.5 1 79
2019-10-09 11:00:00 21.9 31 Este 51 Este 0 1011.7 1.8 79
2019-10-09 10:00:00 21.1 31 Este 55 Este 0 1010.9 1 80
2019-10-09 09:00:00 20.2 30 Este 52 Nordeste 0 1010.5 0.9 83
2019-10-09 08:00:00 20.2 33 Este 52 Este 0 1009.9 0.1 80
2019-10-09 07:00:00 20.5 30 Este 50 Este 0 1009.9 0 78
2019-10-09 06:00:00 20.7 31 Este 51 Este 0 1009.6 -0.6 77
2019-10-09 05:00:00 20.9 30 Este 54 Este 0 1009.8 -1.1 71
2019-10-09 04:00:00 21.1 36 Este 61 Este 0 1009.9 -1.1 73
2019-10-09 03:00:00 20.9 37 Este 60 Este 0 1010.2 -1.1 78
2019-10-09 02:00:00 20.7 27 Este 56 Este 0 1010.9 -0.6 82
2019-10-09 01:00:00 20.8 32 Este 57 Este 0 1011 -0.3 81
2019-10-09 00:00:00 20.8 33 Este 57 Este 0 1011.3 0.1 81
2019-10-08 23:00:00 20.9 33 Este 55 Este 0 1011.5 0 81
2019-10-08 22:00:00 21 32 Este 55 Este 0 1011.3 0.5 80
2019-10-08 21:00:00 20.9 34 Este 54 Este 0 1011.2 0.2 83
2019-10-08 20:00:00 21.2 26 Este 50 Este 0 1011.5 0.3 85
2019-10-08 19:00:00 22 37 Este 56 Este 0 1010.8 -0.4 84
2019-10-08 18:00:00 22.9 37 Este 59 Este 0 1011 -0.8 81
2019-10-08 17:00:00 23.5 39 Este 62 Este 0 1011.2 -1 77
2019-10-08 16:00:00 24.5 40 Este 65 Este 0 1011.2 -1.5 72
2019-10-08 15:00:00 24.1 44 Este 69 Este 0 1011.8 -0.9 75
2019-10-08 14:00:00 23.9 43 Este 66 Este 0 1012.2 -0.8 79
2019-10-08 13:00:00 23.3 45 Este 67 Este 0 1012.7 0.3 80
2019-10-08 12:00:00 23.1 40 Este 66 Este 0 1012.7 0.4 80
2019-10-08 11:00:00 22.2 39 Este 59 Este 0 1013 1.7 84
2019-10-08 10:00:00 21.3 36 Este 57 Este 0 1012.4 0.9 87
2019-10-08 09:00:00 20.4 24 Este 47 Este 0 1012.3 1.2 90
2019-10-08 08:00:00 20.5 26 Este 43 Este 0 1011.3 0.4 90
2019-10-08 07:00:00 21 21 Nordeste 40 Nordeste 0 1011.5 0.7 83
2019-10-08 06:00:00 21.5 27 Nordeste 43 Nordeste 0 1011.1 0.1 56
2019-10-08 05:00:00 20.8 28 Este 45 Nordeste 0 1010.9 0.2 72
2019-10-08 04:00:00 18.5 24 Este 33 Este 0 1010.8 -0.4 89
2019-10-08 03:00:00 17.8 10 Este 19 Este 0 1011 -0.5 91
2019-10-08 02:00:00 16.6 5 Nordeste 13 Norte 0 1010.7 -0.7 99
2019-10-08 01:00:00 17.2 3 Noroeste 11 Norte 0 1011.2 0 99
2019-10-08 00:00:00 17.2 5 Norte 9 Oeste 0 1011.5 0.6 99
2019-10-07 23:00:00 17.2 6 Oeste 12 Noroeste 0 1011.4 0.2 99
2019-10-07 22:00:00 17.7 8 Noroeste 17 Oeste 0 1011.2 0.3 99
2019-10-07 21:00:00 18.5 9 Oeste 17 Oeste 0 1010.9 -0.1 99
2019-10-07 20:00:00 18.5 10 Noroeste 19 Noroeste 0 1011.2 0 99
2019-10-07 19:00:00 19.1 12 Noroeste 22 Oeste 0 1010.9 -0.7 98
2019-10-07 18:00:00 21.5 17 Oeste 24 Oeste 0 1011 -0.8 89
2019-10-07 17:00:00 21.5 15 Oeste 29 Oeste 0 1011.2 -1.3 88
2019-10-07 16:00:00 21.1 17 Oeste 29 Oeste 0 1011.6 -1.3 88
2019-10-07 15:00:00 20.8 24 Oeste 33 Oeste 0 1011.8 -1.4 88
2019-10-07 14:00:00 20.6 21 Oeste 33 Oeste 0 1012.5 -0.7 87
2019-10-07 13:00:00 20.6 18 Oeste 31 Oeste 0 1012.9 0.1 84
2019-10-07 12:00:00 19.9 18 Oeste 29 Oeste 0 1013.2 0.9 87
2019-10-07 11:00:00 19.5 15 Oeste 26 Oeste 0 1013.2 1.3 89
2019-10-07 10:00:00 18.3 12 Noroeste 22 Noroeste 0 1012.8 1.2 87
2019-10-07 09:00:00 17.1 12 Noroeste 19 Noroeste 0 1012.3 0.7 93
2019-10-07 08:00:00 17.1 10 Noroeste 16 Noroeste 0 1011.9 0.1 91
2019-10-07 07:00:00 16.7 9 Noroeste 14 Noroeste 0 1011.6 -0.8 90
2019-10-07 06:00:00 15.3 6 Noroeste 11 Oeste 0 1011.6 -1.2 93
2019-10-07 05:00:00 16.7 5 Noroeste 9 Noroeste 0 1011.8 -1.2 89
2019-10-07 04:00:00 16.6 6 Noroeste 10 Oeste 0 1012.4 -1.1 91
2019-10-07 03:00:00 16.2 4 Oeste 7 Oeste 0 1012.8 -0.8 87
2019-10-07 02:00:00 17.6 4 Noroeste 16 Noroeste 0 1013 -0.6 77
2019-10-07 01:00:00 18.5 12 Oeste 19 Oeste 0 1013.5 0.2 75
2019-10-07 00:00:00 18.9 12 Oeste 18 Oeste 0 1013.6 0.6 78
2019-10-06 23:00:00 18.7 11 Sudoeste 18 Oeste 0 1013.6 0.5 90
2019-10-06 22:00:00 18.7 9 Oeste 17 Oeste 0 1013.3 0.2 93
2019-10-06 21:00:00 19 12 Oeste 20 Oeste 0 1013 0 92
2019-10-06 20:00:00 19.5 12 Oeste 21 Oeste 0 1013.1 -0.2 88
2019-10-06 19:00:00 20.6 15 Oeste 25 Oeste 0 1013.1 -0.5 86
2019-10-06 18:00:00 21.1 19 Oeste 27 Oeste 0 1013 -1.2 84
2019-10-06 17:00:00 21.6 16 Oeste 28 Oeste 0 1013.3 -1.4 82
2019-10-06 16:00:00 21.6 18 Oeste 28 Oeste 0 1013.6 -1.2 81
2019-10-06 15:00:00 21.7 20 Oeste 34 Oeste 0 1014.2 -0.9 82
2019-10-06 14:00:00 21.2 22 Oeste 37 Oeste 0 1014.7 0 84
2019-10-06 13:00:00 20.9 19 Oeste 29 Oeste 0 1014.8 0.6 84
2019-10-06 12:00:00 20.7 21 Oeste 28 Oeste 0 1015.1 1.4 85
2019-10-06 11:00:00 20 14 Oeste 22 Oeste 0 1014.7 1.1 87
2019-10-06 10:00:00 18.5 9 Oeste 15 Noroeste 0 1014.2 1.2 89
2019-10-06 09:00:00 17.8 7 Noroeste 12 Noroeste 0 1013.7 0.7 90
2019-10-06 08:00:00 17.5 7 Noroeste 27 Noroeste 0 1013.6 0.6 93
2019-10-06 07:00:00 17.3 9 Noroeste 13 Noroeste 0 1013 -0.1 94
2019-10-06 06:00:00 16.8 10 Noroeste 19 Noroeste 0 1013 -0.1 90
2019-10-06 05:00:00 17.2 12 Noroeste 21 Oeste 0 1013 0.1 94
2019-10-06 04:00:00 17.9 13 Oeste 21 Oeste 0 1013.1 0.5 95
2019-10-06 03:00:00 17.9 10 Oeste 19 Oeste 0 1013.1 0.3 93
2019-10-06 02:00:00 18.1 14 Oeste 26 Oeste 0 1012.9 0.4 82
2019-10-06 01:00:00 18.2 12 Noroeste 27 Noroeste 0 1012.6 0.3 76
2019-10-06 00:00:00 18.8 12 Noroeste 26 Noroeste 0 1012.8 1.1 74
2019-10-05 23:00:00 19.5 14 Noroeste 26 Oeste 0 1012.5 1 73
2019-10-05 22:00:00 19.2 14 Oeste 23 Oeste 0 1012.3 1.1 85
2019-10-05 21:00:00 18.9 16 Oeste 31 Oeste 0 1011.7 0.8 85
2019-10-05 20:00:00 19.2 18 Oeste 32 Oeste 0 1011.5 0.2 87
2019-10-05 19:00:00 20 21 Oeste 35 Oeste 0 1011.2 -0.3 86
2019-10-05 18:00:00 21.1 22 Oeste 33 Oeste 0 1010.9 -1.2 83
2019-10-05 17:00:00 21.5 19 Oeste 32 Oeste 0 1011.3 -1.2 82
2019-10-05 16:00:00 22.4 17 Oeste 31 Oeste 0 1011.5 -1.3 79
2019-10-05 15:00:00 22 19 Oeste 32 Oeste 0 1012.1 -0.6 80
2019-10-05 14:00:00 21.1 19 Oeste 30 Sudoeste 0 1012.5 0.2 85
2019-10-05 13:00:00 20.4 17 Oeste 31 Oeste 0 1012.8 0.8 89
2019-10-05 12:00:00 20.4 19 Oeste 30 Oeste 0 1012.7 1.4 89
2019-10-05 11:00:00 19.8 14 Sudoeste 21 Sudoeste 0 1012.3 1.5 90
2019-10-05 10:00:00 19.2 12 Sudoeste 24 Sudoeste 0 1012 1.1 92
2019-10-05 09:00:00 18.8 12 Sudoeste 22 Sudoeste 0 1011.3 0.4 94
2019-10-05 08:00:00 18.2 7 Noroeste 14 Noroeste 0 1010.8 -0.2 95
2019-10-05 07:00:00 17.7 6 Noroeste 16 Noroeste 0 1010.9 -0.2 94
2019-10-05 06:00:00 17.3 9 Noroeste 15 Noroeste 0 1010.9 -0.5 97
2019-10-05 05:00:00 17.5 8 Noroeste 14 Oeste 0 1011 -0.7 97
2019-10-05 04:00:00 18 6 Oeste 15 Noroeste 0 1011.1 -0.8 96
2019-10-05 03:00:00 17.8 6 Oeste 15 Noroeste 0 1011.4 -0.7 95
2019-10-05 02:00:00 18.4 9 Noroeste 19 Oeste 0 1011.7 -0.3 94
2019-10-05 01:00:00 18.3 10 Oeste 19 Oeste 0 1011.9 -0.1 91
2019-10-05 00:00:00 18.3 13 Oeste 20 Noroeste 0 1012.1 0.2 97
2019-10-04 23:00:00 18.5 10 Noroeste 23 Oeste 0 1012 0.3 96
2019-10-04 22:00:00 18.8 13 Oeste 20 Oeste 0 1012 0.6 95
2019-10-04 21:00:00 19.3 11 Oeste 19 Oeste 0 1011.9 0.4 93
2019-10-04 20:00:00 19.5 12 Oeste 22 Oeste 0 1011.7 -0.1 87
2019-10-04 19:00:00 20.2 13 Oeste 26 Oeste 0 1011.4 -0.6 85
2019-10-04 18:00:00 21.6 12 Oeste 24 Sudoeste 0 1011.5 -1.4 79
2019-10-04 17:00:00 22.4 14 Oeste 25 Oeste 0 1011.8 -1.9 79
2019-10-04 16:00:00 22 17 Oeste 27 Oeste 0 1012 -2 80
2019-10-04 15:00:00 21.5 16 Oeste 31 Oeste 0 1012.9 -1.2 81
2019-10-04 14:00:00 21.2 18 Oeste 29 Oeste 0 1013.7 -0.5 82
2019-10-04 13:00:00 21.4 18 Sudoeste 26 Sudoeste 0 1014 0.1 80
2019-10-04 12:00:00 20.6 15 Sudoeste 22 Sudoeste 0 1014.1 0.8 84
2019-10-04 11:00:00 19.4 10 Oeste 15 Sudoeste 0 1014.2 1.3 87
2019-10-04 10:00:00 18.6 8 Noroeste 15 Oeste 0 1013.9 1 88
2019-10-04 09:00:00 17.2 8 Oeste 17 Noroeste 0 1013.3 0.3 91
2019-10-04 08:00:00 17.3 12 Noroeste 17 Noroeste 0 1012.9 0 92
2019-10-04 07:00:00 17.1 12 Noroeste 19 Noroeste 0 1012.9 -0.3 90
2019-10-04 06:00:00 16.7 12 Noroeste 17 Noroeste 0 1013 -0.8 89
2019-10-04 05:00:00 17.1 11 Noroeste 16 Noroeste 0 1012.9 -1 85
2019-10-04 04:00:00 16.9 8 Noroeste 17 Noroeste 0 1013.2 -1 85
2019-10-04 03:00:00 16.8 12 Noroeste 18 Noroeste 0 1013.8 -1 79
2019-10-04 02:00:00 16.7 13 Noroeste 22 Noroeste 0 1013.9 -0.6 74
2019-10-04 01:00:00 17.6 17 Noroeste 25 Noroeste 0 1014.2 -0.2 71
2019-10-04 00:00:00 17.9 12 Noroeste 24 Oeste 0 1014.8 0.5 70
2019-10-03 23:00:00 17.6 15 Noroeste 24 Noroeste 0 1014.5 0.2 69
2019-10-03 22:00:00 18.8 12 Noroeste 28 Oeste 0 1014.4 0.2 63
2019-10-03 21:00:00 18.1 16 Oeste 32 Oeste 0 1014.3 -0.1 85
2019-10-03 20:00:00 18.7 17 Oeste 31 Oeste 0 1014.3 -0.4 82
2019-10-03 19:00:00 19.5 17 Oeste 33 Oeste 0 1014.2 -0.6 82
2019-10-03 18:00:00 20.3 16 Oeste 32 Oeste 0 1014.4 -0.8 81
2019-10-03 17:00:00 21 21 Oeste 31 Oeste 0 1014.7 -1.3 80
2019-10-03 16:00:00 20.6 24 Oeste 31 Oeste 0 1014.8 -1.5 81
2019-10-03 15:00:00 21.5 18 Oeste 31 Sudoeste 0 1015.2 -1.6 75
2019-10-03 14:00:00 21 20 Oeste 32 Sudoeste 0 1016 -0.6 76
2019-10-03 13:00:00 21.1 21 Sudoeste 31 Oeste 0 1016.3 0.2 75
2019-10-03 12:00:00 20.9 18 Sudoeste 26 Sudoeste 0 1016.8 1.4 77
2019-10-03 11:00:00 18.8 18 Sudoeste 26 Sudoeste 0 1016.6 1.6 83
2019-10-03 10:00:00 17.9 13 Sudoeste 23 Sudoeste 0 1016.1 1.5 88
2019-10-03 09:00:00 17 12 Oeste 20 Sudoeste 0 1015.4 1 93
2019-10-03 08:00:00 16.7 8 Oeste 15 Oeste 0 1015 0.7 93
2019-10-03 07:00:00 16.7 8 Noroeste 22 Oeste 0 1014.6 0.1 93
2019-10-03 06:00:00 16.9 10 Oeste 17 Oeste 0 1014.4 -0.5 92
2019-10-03 05:00:00 16.6 6 Noroeste 12 Noroeste 0 1014.3 -0.7 93
2019-10-03 04:00:00 16.6 6 Noroeste 14 Oeste 0 1014.5 -0.5 91
2019-10-03 03:00:00 16.8 8 Oeste 15 Noroeste 0 1014.9 0 89
2019-10-03 02:00:00 17 12 Noroeste 18 Noroeste 0 1015 0 85
2019-10-03 01:00:00 16.8 10 Noroeste 18 Noroeste 0 1015 0.7 85
2019-10-03 00:00:00 16.6 10 Noroeste 16 Noroeste 0 1014.9 1 86
2019-10-02 23:00:00 17.8 10 Noroeste 25 Noroeste 0 1015 1.3 84
2019-10-02 22:00:00 18.4 19 Noroeste 33 Oeste 0 1014.3 0.5 82
2019-10-02 21:00:00 18.3 19 Noroeste 29 Noroeste 0 1013.9 0.3 82
2019-10-02 20:00:00 18.4 17 Oeste 28 Oeste 0 1013.7 0.1 76
2019-10-02 19:00:00 19.7 18 Oeste 30 Oeste 0 1013.8 -0.3 71
2019-10-02 18:00:00 20.2 22 Oeste 34 Oeste 0 1013.6 -1.1 69
2019-10-02 17:00:00 21.3 22 Oeste 37 Noroeste 0 1013.6 -1.2 59
2019-10-02 16:00:00 20.8 19 Noroeste 43 Oeste 0 1014.1 -0.9 63
2019-10-02 15:00:00 19.8 19 Oeste 40 Oeste 0 1014.7 -0.2 75
2019-10-02 14:00:00 19.1 23 Oeste 34 Oeste 0 1014.8 -0.1 81
2019-10-02 13:00:00 18.6 21 Oeste 31 Oeste 0 1015 0.6 85
2019-10-02 12:00:00 18.7 22 Oeste 34 Oeste 0 1014.9 1.2 84
2019-10-02 11:00:00 18.4 18 Oeste 32 Oeste 0 1014.9 1.8 86
2019-10-02 10:00:00 18 16 Oeste 26 Oeste 0 1014.4 1.8 90
2019-10-02 09:00:00 17.8 16 Oeste 27 Oeste 0 1013.7 1.3 92
2019-10-02 08:00:00 17.6 15 Oeste 26 Oeste 0 1013.1 0.6 89
2019-10-02 07:00:00 17.9 17 Oeste 29 Oeste 0 1012.6 -0.4 93
2019-10-02 06:00:00 18.6 19 Oeste 29 Sudoeste 0 1012.4 -0.7 90
2019-10-02 05:00:00 18.6 18 Oeste 26 Oeste 0 1012.5 -0.7 92
2019-10-02 04:00:00 18.9 11 Oeste 19 Sudoeste 0 1013 -0.5 92
2019-10-02 03:00:00 19.4 8 Oeste 22 Oeste 0 1013.1 -0.3 94
2019-10-02 02:00:00 19.4 12 Oeste 23 Sudoeste 0 1013.2 -0.4 93
2019-10-02 01:00:00 19.4 5 Oeste 17 Oeste 0 1013.5 0.2 94
2019-10-02 00:00:00 19.2 6 Oeste 17 Oeste 0 1013.4 0.5 92
2019-10-01 23:00:00 19.6 12 Oeste 19 Oeste 0 1013.6 1.2 90
2019-10-01 22:00:00 19.5 12 Oeste 24 Oeste 0 1013.3 1 89
2019-10-01 21:00:00 19.8 16 Oeste 24 Oeste 0 1012.9 0.9 89
2019-10-01 20:00:00 20.1 12 Noroeste 25 Oeste 0 1012.4 0.6 83
2019-10-01 19:00:00 21 19 Oeste 33 Sudoeste 0 1012.3 0.1 78
2019-10-01 18:00:00 21.6 19 Oeste 33 Oeste 0 1012 -0.5 78
2019-10-01 17:00:00 21.5 28 Oeste 39 Oeste 0 1011.8 -0.7 78
2019-10-01 16:00:00 21.3 24 Oeste 34 Noroeste 0 1012.2 -0.6 79
2019-10-01 15:00:00 21.2 22 Oeste 37 Oeste 0 1012.5 -0.1 81
2019-10-01 14:00:00 21.5 26 Oeste 34 Sudoeste 0 1012.5 0.3 82
2019-10-01 13:00:00 21.2 17 Oeste 32 Oeste 0 1012.8 1.3 84
2019-10-01 12:00:00 20.6 17 Oeste 29 Sudoeste 0 1012.6 1.7 84
2019-10-01 11:00:00 20.1 13 Oeste 22 Oeste 0 1012.2 1.8 86
2019-10-01 10:00:00 18.7 11 Noroeste 24 Noroeste 0 1011.5 1.5 81
2019-10-01 09:00:00 18.5 12 Noroeste 20 Oeste 0 1010.9 1 85
2019-10-01 08:00:00 17.9 11 Oeste 22 Oeste 0 1010.4 0.9 76
2019-10-01 07:00:00 18 13 Oeste 22 Oeste 0 1010 0 83
2019-10-01 06:00:00 18.2 11 Sudoeste 16 Oeste 0 1009.9 -0.2 81
2019-10-01 05:00:00 18 7 Oeste 12 Oeste 0 1009.5 -0.9 85
2019-10-01 04:00:00 19.2 8 Oeste 16 Oeste 0 1010 -0.3 72
2019-10-01 03:00:00 19.2 11 Noroeste 16 Noroeste 0 1010.1 -0.2 65
2019-10-01 02:00:00 17 3 Norte 8 Este 0 1010.4 0.2 67
2019-10-01 01:00:00 18 2 Este 6 Nordeste 0 1010.3 0.6 63
2019-10-01 00:00:00 18.2 3 Este 21 Nordeste 0 1010.3 0.7 59
2019-09-30 23:00:00 19.3 5 Nordeste 11 Este 0 1010.2 0.4 64
2019-09-30 22:00:00 19.8 5 Este 7 Este 0 1009.7 -0.2 63
2019-09-30 21:00:00 20.3 0 Calma 3 Sur 0 1009.6 -0.4 65
2019-09-30 20:00:00 21.5 0 Calma 7 Sudeste 0 1009.8 -0.4 70
2019-09-30 19:00:00 23.3 5 Sur 7 Sur 0 1009.9 -0.7 61
2019-09-30 18:00:00 22.2 5 Sudeste 10 Sudeste 0 1010 -1.2 75
2019-09-30 17:00:00 25 4 Sudeste 11 Sudeste 0 1010.2 -1.8 55
2019-09-30 16:00:00 26 5 Oeste 14 Oeste 0 1010.6 -2.2 32
2019-09-30 15:00:00 25.3 9 Oeste 14 Oeste 0 1011.2 -1.9 32
2019-09-30 14:00:00 24.5 9 Oeste 15 Oeste 0 1012 -1 38
2019-09-30 13:00:00 22.3 7 Oeste 12 Sudoeste 0 1012.8 0 66
2019-09-30 12:00:00 19.3 6 Oeste 11 Oeste 0 1013.1 0.4 91
2019-09-30 11:00:00 16.4 5 Noroeste 12 Nordeste 0 1013 0.6 99
2019-09-30 10:00:00 15.1 7 Norte 14 Norte 0 1012.8 0.5 99
2019-09-30 09:00:00 15.6 6 Noroeste 13 Noroeste 0 1012.7 0.4 99
2019-09-30 08:00:00 15.8 6 Noroeste 14 Oeste 0 1012.4 0 99
2019-09-30 07:00:00 16.4 6 Noroeste 15 Oeste 0 1012.3 -0.6 99
2019-09-30 06:00:00 16.2 7 Noroeste 14 Noroeste 0 1012.3 -1 99
2019-09-30 05:00:00 16.5 8 Noroeste 15 Oeste 0 1012.4 -1 99
2019-09-30 04:00:00 16.6 8 Noroeste 15 Noroeste 0 1012.9 -0.4 99
2019-09-30 03:00:00 16.6 7 Noroeste 12 Noroeste 0 1013.3 0 99
2019-09-30 02:00:00 16.7 6 Noroeste 11 Noroeste 0 1013.4 0.4 99
2019-09-30 01:00:00 16.5 5 Norte 9 Norte 0 1013.3 0.2 95
2019-09-30 00:00:00 17.4 0 Calma 8 Noroeste 0 1013.3 1 94
2019-09-29 23:00:00 18.3 8 Norte 13 Noroeste 0 1013 0.8 96
2019-09-29 22:00:00 18.4 6 Norte 14 Norte 0 1013.1 1.1 94
2019-09-29 21:00:00 20 2 Noroeste 10 Noroeste 0 1012.3 0.2 87
2019-09-29 20:00:00 21.5 8 Nordeste 26 Este 0 1012.2 -0.4 81
2019-09-29 19:00:00 22.7 19 Este 32 Este 0 1012 -1.1 79
2019-09-29 18:00:00 23.2 22 Este 33 Este 0 1012.1 -1.3 75
2019-09-29 17:00:00 23.5 24 Este 37 Este 0 1012.6 -1.7 74
2019-09-29 16:00:00 23.6 26 Este 40 Este 0 1013.1 -1.1 74
2019-09-29 15:00:00 23.7 27 Este 39 Este 0 1013.4 -0.8 73
2019-09-29 14:00:00 23.5 28 Este 43 Este 0 1014.3 0.6 73
2019-09-29 13:00:00 23 28 Este 43 Este 0 1014.2 0.9 75
2019-09-29 12:00:00 22.2 30 Este 45 Este 0 1014.2 1.5 79
2019-09-29 11:00:00 21.8 31 Este 43 Este 0 1013.7 1.6 79
2019-09-29 10:00:00 20.8 27 Este 44 Este 0 1013.3 1.9 85
2019-09-29 09:00:00 19.8 27 Este 44 Este 0 1012.7 1.2 89
2019-09-29 08:00:00 19.3 32 Este 53 Este 0 1012.1 0.6 91
2019-09-29 07:00:00 19.5 34 Este 53 Este 0 1011.4 -0.1 90
2019-09-29 06:00:00 19.4 36 Este 58 Este 0 1011.5 -0.3 91
2019-09-29 05:00:00 19.3 38 Este 60 Este 0 1011.5 -0.4 92
2019-09-29 04:00:00 19.5 41 Este 60 Este 0 1011.5 -1 90
2019-09-29 03:00:00 19.4 39 Este 59 Este 0 1011.8 -0.5 89
2019-09-29 02:00:00 19.1 40 Este 60 Este 0 1011.9 -0.4 90
2019-09-29 01:00:00 19.1 36 Este 59 Este 0 1012.5 0 91
2019-09-29 00:00:00 18.5 36 Este 56 Este 0 1012.3 0.2 95
2019-09-28 23:00:00 18.5 36 Este 54 Este 0 1012.3 0.6 98
2019-09-28 22:00:00 18.5 31 Este 45 Este 0 1012.5 0.7 97
2019-09-28 21:00:00 19.1 29 Este 43 Este 0 1012.1 0.3 93
2019-09-28 20:00:00 19.7 32 Este 48 Este 0 1011.7 -0.5 89
2019-09-28 19:00:00 21.1 33 Este 47 Este 0 1011.8 -0.5 84
2019-09-28 18:00:00 21.7 33 Este 47 Este 0 1011.8 -1 78
2019-09-28 17:00:00 22.2 27 Este 37 Este 0 1012.2 -1.4 75
2019-09-28 16:00:00 25.7 26 Este 40 Este 0 1012.3 -1.9 57
2019-09-28 15:00:00 24.6 28 Este 39 Este 0 1012.8 -1.8 66
2019-09-28 14:00:00 22.4 29 Este 41 Este 0 1013.6 -0.8 77
2019-09-28 13:00:00 21.4 24 Este 37 Este 0 1014.2 0.5 81
2019-09-28 12:00:00 21.3 24 Este 33 Este 0 1014.6 1 81
2019-09-28 11:00:00 20 18 Este 27 Este 0 1014.4 1.4 87
2019-09-28 10:00:00 19.7 10 Este 21 Este 0 1013.7 1 87
2019-09-28 09:00:00 17.2 6 Este 12 Este 0 1013.6 1 95
2019-09-28 08:00:00 17.3 6 Este 14 Nordeste 0 1013 0.5 98
2019-09-28 07:00:00 16.5 2 Nordeste 15 Este 0 1012.7 0.1 97
2019-09-28 06:00:00 16.4 4 Este 12 Este 0 1012.6 -0.5 99
2019-09-28 05:00:00 16 0 Calma 4 Sur 0 1012.5 -1 98
2019-09-28 04:00:00 16.1 6 Norte 9 Norte 0 1012.6 -1.3 99
2019-09-28 03:00:00 16.9 6 Noroeste 12 Norte 0 1013.1 -1 99
2019-09-28 02:00:00 18.1 6 Norte 9 Noroeste 0 1013.5 -0.5 99
2019-09-28 01:00:00 19.3 3 Noroeste 7 Oeste 0 1013.9 0.3 97
2019-09-28 00:00:00 19.3 3 Norte 8 Noroeste 0 1014.1 0.9 96
2019-09-27 23:00:00 20.2 5 Noroeste 10 Oeste 0 1014 1.2 95
2019-09-27 22:00:00 20.2 6 Oeste 10 Oeste 0 1013.6 1 93
2019-09-27 21:00:00 20.2 6 Oeste 13 Oeste 0 1013.2 0.5 90
2019-09-27 20:00:00 21.1 6 Oeste 12 Oeste 0 1012.8 -0.1 88
2019-09-27 19:00:00 22.6 7 Oeste 12 Sudoeste 0 1012.6 -0.4 79
2019-09-27 18:00:00 23.6 7 Oeste 13 Sudeste 0 1012.7 -0.9 72
2019-09-27 17:00:00 23.9 9 Sudeste 23 Este 0 1012.9 -1.5 69
2019-09-27 16:00:00 23.3 15 Este 32 Este 0 1013 -1.3 72
2019-09-27 15:00:00 22.1 24 Este 31 Este 0 1013.6 -1.1 80
2019-09-27 14:00:00 23.4 19 Este 32 Este 0 1014.4 -0.2 72
2019-09-27 13:00:00 22.4 24 Este 34 Este 0 1014.3 0.1 76
2019-09-27 12:00:00 21.9 21 Este 32 Este 0 1014.7 0.8 81
2019-09-27 11:00:00 21 18 Este 27 Este 0 1014.6 1.1 88
2019-09-27 10:00:00 20.3 14 Este 22 Este 0 1014.2 0.7 91
2019-09-27 09:00:00 18.7 8 Este 18 Este 0 1013.9 0.9 96
2019-09-27 08:00:00 18.3 13 Este 19 Este 0 1013.5 0.4 96
2019-09-27 07:00:00 18.5 10 Nordeste 23 Este 0 1013.5 0.5 95
2019-09-27 06:00:00 18.6 12 Este 25 Este 0 1013 -0.2 95
2019-09-27 05:00:00 19 18 Este 31 Este 0 1013.1 -0.4 94
2019-09-27 04:00:00 19.4 17 Este 30 Este 0 1013 -0.7 93
2019-09-27 03:00:00 19.3 15 Este 25 Este 0 1013.2 -0.4 94
2019-09-27 02:00:00 19.3 17 Este 27 Este 0 1013.5 -0.1 96
2019-09-27 01:00:00 19.4 18 Este 28 Este 0 1013.7 0.3 97
2019-09-27 00:00:00 19.6 19 Este 30 Este 0 1013.6 0.9 97
2019-09-26 23:00:00 19.9 18 Este 27 Este 0 1013.6 1.1 97
2019-09-26 22:00:00 19.1 6 Nordeste 10 Nordeste 0 1013.4 1.5 92
2019-09-26 21:00:00 20.1 3 Norte 14 Nordeste 0 1012.7 0.8 90
2019-09-26 20:00:00 21.9 15 Nordeste 38 Este 0 1012.5 0.6 83
2019-09-26 19:00:00 22.5 26 Este 43 Este 0 1011.9 -0.6 85
2019-09-26 18:00:00 23.1 29 Este 43 Este 0 1011.9 -0.9 82
2019-09-26 17:00:00 23.7 28 Este 45 Este 0 1011.9 -1.5 78
2019-09-26 16:00:00 23.9 27 Este 44 Este 0 1012.5 -1.4 77
2019-09-26 15:00:00 24 25 Este 43 Este 0 1012.8 -1.4 74
2019-09-26 14:00:00 23.1 27 Este 40 Este 0 1013.4 -0.9 76
2019-09-26 13:00:00 22.2 25 Este 42 Este 0 1013.9 0.1 80
2019-09-26 12:00:00 22.2 23 Este 32 Este 0 1014.2 1.2 82
2019-09-26 11:00:00 22.1 7 Sudeste 15 Sudeste 0 1014.3 1.7 73
2019-09-26 10:00:00 20.5 5 Este 8 Este 0 1013.8 1.6 81
2019-09-26 09:00:00 16.4 5 Nordeste 10 Norte 0 1013 1 92
2019-09-26 08:00:00 16.6 6 Norte 12 Noroeste 0 1012.6 0.7 92
2019-09-26 07:00:00 18.2 9 Noroeste 14 Noroeste 0 1012.2 0.2 88
2019-09-26 06:00:00 17.7 8 Noroeste 13 Noroeste 0 1012 -0.2 89
2019-09-26 05:00:00 17.6 10 Noroeste 15 Noroeste 0 1011.9 -0.5 84
2019-09-26 04:00:00 17.9 12 Noroeste 15 Noroeste 0 1012 -0.6 85
2019-09-26 03:00:00 18.1 7 Noroeste 15 Noroeste 0 1012.2 -0.5 84
2019-09-26 02:00:00 18.4 9 Noroeste 27 Oeste 0 1012.4 0.2 82
2019-09-26 01:00:00 18.7 14 Oeste 22 Oeste 0 1012.6 0.6 91
2019-09-26 00:00:00 19 11 Oeste 21 Sudoeste 0 1012.7 0.9 87
2019-09-25 23:00:00 19.2 14 Oeste 20 Oeste 0 1012.2 0.6 89
2019-09-25 22:00:00 19.2 8 Oeste 21 Oeste 0 1012 0.3 89
2019-09-25 21:00:00 19.7 11 Oeste 26 Oeste 0 1011.8 0.1 84
2019-09-25 20:00:00 20.5 15 Oeste 28 Oeste 0 1011.6 -0.2 80
2019-09-25 19:00:00 21.3 14 Oeste 35 Oeste 0 1011.7 -0.8 80
2019-09-25 18:00:00 21.5 22 Oeste 40 Oeste 0 1011.7 -1.4 78
2019-09-25 17:00:00 21.7 26 Oeste 36 Oeste 0 1011.8 -1.8 77
2019-09-25 16:00:00 21.4 21 Oeste 35 Oeste 0 1012.5 -1.7 80
2019-09-25 15:00:00 21.8 22 Oeste 35 Oeste 0 1013.1 -1.3 81
2019-09-25 14:00:00 22.8 20 Oeste 34 Oeste 0 1013.6 -0.4 76
2019-09-25 13:00:00 22.5 21 Sudoeste 34 Sudoeste 0 1014.2 0.8 81
2019-09-25 12:00:00 22.4 17 Sudoeste 49 Sudoeste 0 1014.4 1.3 79
2019-09-25 11:00:00 21.7 15 Oeste 23 Oeste 0 1014 1.2 82
2019-09-25 10:00:00 20.5 14 Oeste 30 Sudoeste 0 1013.4 1 89
2019-09-25 09:00:00 20.1 16 Sudoeste 26 Sudoeste 0 1013.1 0.4 89
2019-09-25 08:00:00 20 13 Oeste 26 Sudoeste 0 1012.8 0.3 89
2019-09-25 07:00:00 19.7 10 Oeste 21 Oeste 0 1012.4 -0.4 92
2019-09-25 06:00:00 19.6 14 Oeste 24 Oeste 0 1012.7 -0.2 90
2019-09-25 05:00:00 19.7 12 Oeste 22 Oeste 0 1012.5 -0.7 90
2019-09-25 04:00:00 19.6 14 Oeste 26 Oeste 0 1012.8 -0.8 92
2019-09-25 03:00:00 20.2 15 Oeste 24 Oeste 0 1012.9 -0.7 89
2019-09-25 02:00:00 20.5 9 Oeste 20 Sudoeste 0 1013.2 -0.3 86
2019-09-25 01:00:00 21.4 12 Oeste 21 Oeste 0 1013.6 0.5 63
2019-09-25 00:00:00 21.5 8 Oeste 23 Oeste 0 1013.6 0.9 58
2019-09-24 23:00:00 22.4 13 Oeste 19 Oeste 0 1013.5 1 55
2019-09-24 22:00:00 22.8 11 Noroeste 16 Noroeste 0 1013.1 0.7 51
2019-09-24 21:00:00 21.3 11 Oeste 27 Noroeste 0 1012.7 0 75
2019-09-24 20:00:00 21.3 19 Oeste 32 Oeste 0 1012.5 -0.6 82
2019-09-24 19:00:00 22.2 15 Noroeste 26 Oeste 0 1012.4 -1 74
2019-09-24 18:00:00 22.7 12 Oeste 27 Oeste 0 1012.7 -1.6 78
2019-09-24 17:00:00 22.4 14 Oeste 28 Oeste 0 1013.1 -1.8 76
2019-09-24 16:00:00 22.6 14 Oeste 24 Oeste 0 1013.4 -2.1 76
2019-09-24 15:00:00 23.2 12 Oeste 18 Oeste 0 1014.3 -1.4 72
2019-09-24 14:00:00 24.8 6 Sudoeste 13 Sudoeste 0 1014.9 -0.8 62
2019-09-24 13:00:00 24.3 8 Sudeste 19 Este 0 1015.5 0.2 47
2019-09-24 12:00:00 22.3 15 Este 19 Este 0 1015.7 1.1 66
2019-09-24 11:00:00 22.2 12 Este 19 Este 0 1015.7 1.4 63
2019-09-24 10:00:00 21.3 11 Este 22 Este 0 1015.3 1.1 72
2019-09-24 09:00:00 19.8 13 Este 22 Nordeste 0 1014.6 0.6 79
2019-09-24 08:00:00 19.1 17 Este 25 Este 0 1014.3 0.5 75
2019-09-24 07:00:00 18.7 10 Este 17 Nordeste 0 1014.2 0 59
2019-09-24 06:00:00 17.9 8 Nordeste 14 Este 0 1014 -0.7 62
2019-09-24 05:00:00 17.7 7 Este 9 Este 0 1013.8 -0.9 64
2019-09-24 04:00:00 18.1 4 Nordeste 7 Norte 0 1014.2 -0.5 61
2019-09-24 03:00:00 17.8 5 Norte 8 Este 0 1014.7 -0.1 63
2019-09-24 02:00:00 16.9 4 Nordeste 7 Este 0 1014.7 -0.3 77
2019-09-24 01:00:00 15.7 5 Este 7 Este 0 1014.7 -0.1 81
2019-09-24 00:00:00 16.5 3 Nordeste 5 Norte 0 1014.8 0.5 84
2019-09-23 23:00:00 18 3 Nordeste 8 Este 0 1015 1.2 86
2019-09-23 22:00:00 19.7 6 Este 11 Sudeste 0 1014.8 1 83
2019-09-23 21:00:00 20.6 7 Sudeste 11 Sudeste 0 1014.3 0.5 82
2019-09-23 20:00:00 21.8 4 Sur 12 Oeste 0 1013.8 -0.4 77
2019-09-23 19:00:00 22.9 7 Sudoeste 22 Oeste 0 1013.8 -0.4 69
2019-09-23 18:00:00 22.4 12 Oeste 23 Oeste 0 1013.8 -0.7 69
2019-09-23 17:00:00 23.8 10 Sudoeste 22 Sudoeste 0 1014.2 -0.5 67
2019-09-23 16:00:00 23 12 Oeste 24 Oeste 0 1014.2 -0.8 71
2019-09-23 15:00:00 22.1 14 Oeste 21 Oeste 0 1014.5 -0.8 77
2019-09-23 14:00:00 21.9 14 Sudoeste 24 Sudoeste 0 1014.7 -0.5 76
2019-09-23 13:00:00 21.4 12 Oeste 29 Sudoeste 0 1015 0.4 74
2019-09-23 12:00:00 20.7 16 Sudoeste 24 Oeste 0 1015.3 1 82
2019-09-23 11:00:00 20.1 9 Sudoeste 23 Noroeste 0 1015.2 1.2 87
2019-09-23 10:00:00 18.1 9 Oeste 18 Noroeste 0 1014.6 1.1 93
2019-09-23 09:00:00 17.4 7 Oeste 15 Noroeste 0 1014.3 1 95
2019-09-23 08:00:00 17.1 7 Oeste 18 Noroeste 0 1014 0.6 95
2019-09-23 07:00:00 16.8 8 Norte 12 Noroeste 0 1013.5 0.1 96
2019-09-23 06:00:00 16.8 6 Noroeste 13 Noroeste 0 1013.3 -0.5 95
2019-09-23 05:00:00 17.6 6 Noroeste 14 Noroeste 0 1013.4 -0.9 95
2019-09-23 04:00:00 18 6 Oeste 13 Noroeste 0 1013.4 -1 92
2019-09-23 03:00:00 18.1 9 Noroeste 15 Oeste 0 1013.8 -0.8 92
2019-09-23 02:00:00 18.2 4 Sudoeste 13 Noroeste 0 1014.3 -0.1 90
2019-09-23 01:00:00 18.5 8 Noroeste 14 Noroeste 0 1014.4 0.6 87
2019-09-23 00:00:00 18.9 9 Oeste 18 Oeste 0 1014.6 1.4 86
2019-09-22 23:00:00 19 12 Noroeste 22 Oeste 0 1014.4 1.6 88
2019-09-22 22:00:00 19.2 15 Oeste 22 Oeste 0 1013.8 1.2 87
2019-09-22 21:00:00 19.7 11 Noroeste 26 Oeste 0 1013.2 0.6 85
2019-09-22 20:00:00 19.9 14 Oeste 32 Oeste 0 1012.8 0.5 83
2019-09-22 19:00:00 20.6 19 Oeste 36 Oeste 0 1012.6 0.2 81
2019-09-22 18:00:00 21 22 Oeste 35 Oeste 0 1012.6 0.3 77
2019-09-22 17:00:00 21.5 19 Oeste 32 Oeste 0 1012.3 -0.3 73
2019-09-22 16:00:00 20.9 22 Oeste 32 Oeste 0 1012.4 -0.3 77
2019-09-22 15:00:00 20.8 17 Oeste 28 Oeste 0 1012.3 -0.1 79
2019-09-22 14:00:00 20.4 15 Oeste 25 Oeste 0 1012.6 0.3 87
2019-09-22 13:00:00 18.9 8 Oeste 26 Sudoeste 0.2 1012.7 1 97
2019-09-22 12:00:00 19.8 18 Oeste 31 Sudoeste 0.1 1012.4 1.3 94
2019-09-22 11:00:00 21.3 17 Sudoeste 28 Sudoeste 0 1012.3 1.7 83
2019-09-22 10:00:00 21.1 17 Sudoeste 28 Sudoeste 0 1011.7 1.3 83
2019-09-22 09:00:00 20 19 Sudoeste 28 Sudoeste 0 1011.1 0.8 87
2019-09-22 08:00:00 19.7 16 Sudoeste 26 Sudoeste 0 1010.6 0.5 87
2019-09-22 07:00:00 19.9 15 Sudoeste 22 Sudoeste 0 1010.4 -0.1 86
2019-09-22 06:00:00 20.1 10 Sudoeste 15 Sudoeste 0 1010.3 -0.2 88
2019-09-22 05:00:00 20.2 4 Oeste 10 Oeste 0 1010.1 -0.5 90
2019-09-22 04:00:00 20.3 6 Oeste 12 Sudoeste 0 1010.5 -0.3 89
2019-09-22 03:00:00 20 5 Oeste 10 Oeste 0 1010.5 -0.4 90
2019-09-22 02:00:00 20.3 5 Oeste 12 Oeste 0 1010.6 0 90
2019-09-22 01:00:00 20.3 6 Noroeste 11 Noroeste 0 1010.8 0.7 90
2019-09-22 00:00:00 19.8 8 Noroeste 15 Oeste 0 1010.9 1.2 86
2019-09-21 23:00:00 20.5 9 Oeste 14 Oeste 0 1010.6 1.4 91
2019-09-21 22:00:00 20.2 9 Oeste 19 Oeste 0 1010.1 1 92
2019-09-21 21:00:00 20.5 13 Oeste 29 Oeste 0 1009.7 0.6 90
2019-09-21 20:00:00 20.9 17 Oeste 30 Oeste 0 1009.2 0.1 86
2019-09-21 19:00:00 21.4 19 Oeste 30 Oeste 0 1009.1 -0.3 83
2019-09-21 18:00:00 21.8 13 Oeste 21 Oeste 0 1009.1 -0.6 82
2019-09-21 17:00:00 22.1 13 Oeste 21 Oeste 0 1009.1 -1.1 80
2019-09-21 16:00:00 22.6 12 Oeste 23 Oeste 0 1009.4 -1.1 78
2019-09-21 15:00:00 22.4 13 Oeste 22 Oeste 0 1009.7 -1 78
2019-09-21 14:00:00 22.1 13 Oeste 21 Oeste 0 1010.2 -0.3 81
2019-09-21 13:00:00 21.3 13 Oeste 19 Oeste 0 1010.5 0.3 83
2019-09-21 12:00:00 21 10 Sudoeste 15 Sudoeste 0 1010.7 1.3 83
2019-09-21 11:00:00 20.6 8 Sudoeste 14 Oeste 0 1010.5 1.8 86
2019-09-21 10:00:00 19.1 11 Oeste 16 Oeste 0 1010.2 1.6 91
2019-09-21 09:00:00 18.9 7 Oeste 12 Oeste 0 1009.4 0.3 90
2019-09-21 08:00:00 18.7 4 Sudoeste 8 Sudoeste 0 1008.7 -0.1 90
2019-09-21 07:00:00 18.8 6 Norte 12 Norte 0 1008.6 -0.4 87
2019-09-21 06:00:00 18.8 10 Noroeste 16 Noroeste 0 1009.1 -0.5 88
2019-09-21 05:00:00 18.6 8 Noroeste 12 Noroeste 0 1008.8 -1.2 90
2019-09-21 04:00:00 18.9 6 Oeste 13 Oeste 0 1009 -1.2 91
2019-09-21 03:00:00 19.6 7 Oeste 12 Sudoeste 0 1009.6 -1.2 89
2019-09-21 02:00:00 20.2 6 Oeste 14 Oeste 0 1010 -0.7 87
2019-09-21 01:00:00 20.3 9 Noroeste 14 Noroeste 0 1010.2 0 88
2019-09-21 00:00:00 20.3 7 Noroeste 11 Noroeste 0 1010.8 1.4 89
2019-09-20 23:00:00 20.5 4 Oeste 11 Sudoeste 0 1010.7 1 86
2019-09-20 22:00:00 20.5 0 Calma 13 Oeste 0 1010.2 1 87
2019-09-20 21:00:00 20.6 6 Noroeste 18 Oeste 0 1009.4 0.1 87
2019-09-20 20:00:00 20.7 8 Oeste 21 Oeste 0 1009.7 0.4 87
2019-09-20 19:00:00 20.8 11 Oeste 21 Oeste 0 1009.2 -0.3 88
2019-09-20 18:00:00 21.3 6 Oeste 18 Oeste 0 1009.3 -0.5 84
2019-09-20 17:00:00 21.5 9 Oeste 28 Oeste 0 1009.3 -1 83
2019-09-20 16:00:00 23.4 8 Sudoeste 24 Este 0 1009.5 -0.9 76
2019-09-20 15:00:00 24.1 16 Este 25 Este 0 1009.8 -0.9 77
2019-09-20 14:00:00 23.6 15 Este 26 Este 0 1010.3 -0.5 77
2019-09-20 13:00:00 23.9 17 Este 27 Este 0 1010.4 0 78
2019-09-20 12:00:00 22.5 17 Este 29 Este 0 1010.7 0.9 82
2019-09-20 11:00:00 22.3 15 Este 26 Este 0 1010.8 1.5 82
2019-09-20 10:00:00 21.1 12 Este 21 Este 0 1010.4 0.8 91
2019-09-20 09:00:00 19.9 11 Este 22 Este 0 1009.8 0.4 95
2019-09-20 08:00:00 19.3 15 Este 22 Este 0 1009.3 -0.3 94
2019-09-20 07:00:00 19.5 12 Este 27 Este 0 1009.6 -0.3 96
2019-09-20 06:00:00 20.3 19 Este 33 Este 0 1009.4 -1.2 94
2019-09-20 05:00:00 20.6 22 Este 34 Este 0 1009.6 -1.1 88
2019-09-20 04:00:00 20.7 18 Este 30 Nordeste 0 1009.9 -1 84
2019-09-20 03:00:00 20.5 15 Este 23 Este 0 1010.6 -0.5 77
2019-09-20 02:00:00 19.7 10 Este 16 Este 0 1010.7 -0.3 90
2019-09-20 01:00:00 20.7 12 Este 19 Este 0 1010.9 0.6 83
2019-09-20 00:00:00 20.6 13 Este 19 Este 0 1011.1 0.9 85
2019-09-19 23:00:00 18.9 8 Este 11 Este 0 1011 1 92
2019-09-19 22:00:00 19.1 0 Calma 6 Sur 0 1010.3 0.1 92
2019-09-19 21:00:00 19.9 4 Sur 9 Sur 0 1010.2 0 90
2019-09-19 20:00:00 20.9 6 Noroeste 17 Oeste 0 1010 -0.5 82
2019-09-19 19:00:00 21.5 9 Noroeste 18 Oeste 0 1010.2 -0.3 82
2019-09-19 18:00:00 21.7 10 Oeste 20 Oeste 0 1010.2 -1.2 82
2019-09-19 17:00:00 22.2 13 Oeste 24 Oeste 0 1010.5 -1.2 79
2019-09-19 16:00:00 22.5 13 Oeste 26 Oeste 0 1010.5 -1.9 81
2019-09-19 15:00:00 22.2 13 Oeste 26 Oeste 0 1011.4 -1.2 80
2019-09-19 14:00:00 22.1 15 Oeste 23 Oeste 0 1011.7 -0.7 79
2019-09-19 13:00:00 21.9 14 Oeste 20 Oeste 0 1012.4 0.2 79
2019-09-19 12:00:00 21.5 10 Oeste 17 Sudoeste 0 1012.6 0.7 80
2019-09-19 11:00:00 21 6 Sudoeste 11 Sudoeste 0 1012.4 0.7 82
2019-09-19 10:00:00 19.7 5 Sudoeste 9 Oeste 0 1012.2 0.7 86
2019-09-19 09:00:00 18.2 5 Noroeste 10 Noroeste 0 1011.9 0.6 91
2019-09-19 08:00:00 18 6 Noroeste 12 Noroeste 0 1011.7 0.3 91
2019-09-19 07:00:00 18.2 6 Noroeste 11 Noroeste 0 1011.5 0 89
2019-09-19 06:00:00 17.5 8 Noroeste 13 Noroeste 0 1011.3 -0.7 92
2019-09-19 05:00:00 17.4 6 Oeste 11 Noroeste 0 1011.4 -0.8 92
2019-09-19 04:00:00 17.7 6 Noroeste 14 Noroeste 0 1011.5 -1 89
2019-09-19 03:00:00 17.9 8 Noroeste 17 Noroeste 0 1012 -0.4 87
2019-09-19 02:00:00 18.1 13 Noroeste 18 Noroeste 0 1012.2 -0.1 87
2019-09-19 01:00:00 18.5 10 Noroeste 16 Noroeste 0 1012.5 0.5 87
2019-09-19 00:00:00 18.8 11 Noroeste 16 Noroeste 0 1012.4 0.9 88
2019-09-18 23:00:00 19.1 9 Noroeste 23 Oeste 0 1012.3 1 89
2019-09-18 22:00:00 19.8 17 Oeste 27 Oeste 0 1012 0.9 87
2019-09-18 21:00:00 20 19 Oeste 27 Oeste 0 1011.5 0.7 88
2019-09-18 20:00:00 20.7 17 Oeste 27 Oeste 0 1011.3 -0.1 86
2019-09-18 19:00:00 21.5 15 Oeste 25 Sudoeste 0 1011.1 -0.4 80
2019-09-18 18:00:00 22.1 17 Oeste 30 Sudoeste 0 1010.8 -1.2 79
2019-09-18 17:00:00 22.7 15 Oeste 30 Sudoeste 0 1011.4 -0.7 75
2019-09-18 16:00:00 23.1 18 Oeste 31 Oeste 0 1011.5 -0.7 73
2019-09-18 15:00:00 21.9 20 Oeste 31 Oeste 0 1012 -0.4 81
2019-09-18 14:00:00 22.2 18 Oeste 29 Oeste 0 1012.1 0 81
2019-09-18 13:00:00 21.8 15 Oeste 26 Sudoeste 0 1012.2 0.4 82
2019-09-18 12:00:00 21.4 17 Oeste 24 Oeste 0 1012.4 0.9 85
2019-09-18 11:00:00 21.5 9 Oeste 17 Sudoeste 0 1012.1 1.4 85
2019-09-18 10:00:00 21.3 5 Oeste 9 Oeste 0 1011.8 1.6 85
2019-09-18 09:00:00 20.3 5 Oeste 10 Oeste 0 1011.5 1.4 90
2019-09-18 08:00:00 20.1 5 Oeste 10 Oeste 0 1010.7 0.5 92
2019-09-18 07:00:00 20.3 3 Sudoeste 7 Sudoeste 0 1010.2 -0.4 93
2019-09-18 06:00:00 20.4 4 Sur 11 Sur 0 1010.1 -0.7 94
2019-09-18 05:00:00 21.2 4 Este 8 Este 0 1010.2 -0.9 95
2019-09-18 04:00:00 20.7 3 Nordeste 9 Norte 0 1010.6 -0.3 90
2019-09-18 03:00:00 20.3 6 Norte 13 Norte 0 1010.8 0 92
2019-09-18 02:00:00 20.7 5 Norte 12 Noroeste 0 1011.1 0.8 91
2019-09-18 01:00:00 20.4 7 Norte 17 Noroeste 0 1010.9 1.4 92
2019-09-18 00:00:00 21 8 Nordeste 16 Este 0 1010.8 1.7 93
2019-09-17 23:00:00 21.6 10 Nordeste 31 Este 0 1010.3 1.2 94
2019-09-17 22:00:00 21.7 18 Este 34 Este 0 1009.5 0.3 93
2019-09-17 21:00:00 22.1 21 Este 32 Este 0 1009.1 -0.4 92